createdAt,value
2022-07-29T00:00:55.413Z,14.44
2022-07-29T00:01:55.675Z,14.39
2022-07-29T00:02:55.925Z,14.44
2022-07-29T00:03:55.787Z,14.49
2022-07-29T00:04:55.488Z,14.44
2022-07-29T00:05:55.644Z,14.41
2022-07-29T00:06:55.368Z,14.51
2022-07-29T00:07:55.361Z,14.45
2022-07-29T00:08:55.348Z,14.48
2022-07-29T00:09:57.202Z,14.46
2022-07-29T00:10:55.077Z,14.48
2022-07-29T00:11:55.589Z,14.52
2022-07-29T00:12:55.837Z,14.44
2022-07-29T00:13:56.051Z,14.39
2022-07-29T00:14:55.569Z,14.36
2022-07-29T00:15:55.707Z,14.41
2022-07-29T00:16:55.511Z,14.44
2022-07-29T00:17:55.532Z,14.46
2022-07-29T00:18:55.273Z,14.49
2022-07-29T00:19:55.518Z,14.51
2022-07-29T00:20:55.565Z,14.45
2022-07-29T00:21:55.291Z,14.46
2022-07-29T00:22:55.240Z,14.57
2022-07-29T00:23:54.968Z,14.49
2022-07-29T00:24:55.951Z,14.49
2022-07-29T00:25:55.666Z,14.53
2022-07-29T00:26:55.911Z,14.61
2022-07-29T00:27:55.924Z,14.44
2022-07-29T00:29:35.471Z,14.49
2022-07-29T00:29:55.631Z,14.56
2022-07-29T00:30:55.883Z,14.49
2022-07-29T00:31:55.854Z,14.48
2022-07-29T00:32:55.871Z,14.48
2022-07-29T00:33:55.600Z,14.53
2022-07-29T00:34:55.616Z,14.46
2022-07-29T00:35:59.218Z,14.46
2022-07-29T00:36:55.578Z,14.46
2022-07-29T00:37:55.571Z,14.46
2022-07-29T00:38:55.565Z,14.45
2022-07-29T00:39:55.554Z,14.48
2022-07-29T00:40:55.817Z,14.46
2022-07-29T00:41:55.854Z,14.49
2022-07-29T00:42:55.784Z,14.48
2022-07-29T00:43:55.786Z,14.52
2022-07-29T00:44:55.519Z,14.51
2022-07-29T00:45:55.760Z,14.46
2022-07-29T00:46:55.529Z,14.48
2022-07-29T00:47:55.745Z,14.45
2022-07-29T00:48:55.723Z,14.46
2022-07-29T00:49:55.919Z,14.46
2022-07-29T00:50:55.725Z,14.56
2022-07-29T00:51:55.594Z,14.49
2022-07-29T00:52:55.722Z,14.48
2022-07-29T00:53:55.441Z,14.49
2022-07-29T00:54:55.430Z,14.48
2022-07-29T00:55:57.350Z,14.52
2022-07-29T00:56:55.449Z,14.51
2022-07-29T00:57:55.671Z,14.49
2022-07-29T00:58:55.405Z,14.53
2022-07-29T00:59:55.136Z,14.51
2022-07-29T01:00:55.427Z,14.44
2022-07-29T01:01:55.540Z,14.44
2022-07-29T01:02:55.625Z,14.45
2022-07-29T01:03:55.365Z,14.53
2022-07-29T01:04:55.612Z,14.41
2022-07-29T01:05:56.579Z,14.38
2022-07-29T01:06:55.601Z,14.41
2022-07-29T01:07:55.588Z,14.46
2022-07-29T01:08:55.325Z,14.44
2022-07-29T01:09:55.318Z,14.42
2022-07-29T01:10:55.315Z,14.48
2022-07-29T01:11:55.556Z,14.38
2022-07-29T01:12:55.034Z,14.39
2022-07-29T01:13:55.287Z,14.39
2022-07-29T01:14:55.290Z,14.38
2022-07-29T01:15:55.775Z,14.31
2022-07-29T01:16:55.625Z,14.41
2022-07-29T01:17:58.357Z,14.38
2022-07-29T01:18:55.245Z,14.36
2022-07-29T01:19:55.237Z,14.33
2022-07-29T01:20:55.226Z,14.28
2022-07-29T01:21:55.484Z,14.28
2022-07-29T01:22:55.549Z,14.3
2022-07-29T01:23:55.459Z,14.27
2022-07-29T01:24:55.192Z,14.28
2022-07-29T01:25:59.094Z,14.3
2022-07-29T01:26:55.689Z,14.27
2022-07-29T01:27:55.172Z,14.27
2022-07-29T01:28:57.061Z,14.21
2022-07-29T01:29:58.151Z,14.19
2022-07-29T01:30:59.857Z,14.24
2022-07-29T01:32:05.710Z,14.23
2022-07-29T01:32:55.130Z,14.19
2022-07-29T01:33:54.868Z,14.21
2022-07-29T01:35:55.361Z,14.12
2022-07-29T01:36:55.353Z,14.19
2022-07-29T01:37:55.089Z,14.24
2022-07-29T01:38:55.079Z,14.23
2022-07-29T01:39:55.073Z,14.26
2022-07-29T01:40:55.070Z,14.28
2022-07-29T01:41:55.312Z,14.36
2022-07-29T01:42:55.306Z,14.26
2022-07-29T01:43:55.297Z,14.33
2022-07-29T01:44:55.041Z,14.27
2022-07-29T01:45:55.032Z,14.27
2022-07-29T01:46:55.522Z,14.33
2022-07-29T01:47:55.262Z,14.39
2022-07-29T01:48:55.487Z,14.34
2022-07-29T01:49:55.248Z,14.33
2022-07-29T01:50:55.236Z,14.41
2022-07-29T01:51:55.233Z,14.36
2022-07-29T01:52:54.960Z,14.44
2022-07-29T01:53:54.700Z,14.44
2022-07-29T01:54:55.205Z,14.52
2022-07-29T01:55:54.940Z,14.48
2022-07-29T01:56:54.943Z,14.45
2022-07-29T01:57:55.177Z,14.48
2022-07-29T01:58:55.132Z,14.48
2022-07-29T01:59:54.905Z,14.46
2022-07-29T02:00:54.893Z,14.46
2022-07-29T02:01:59.459Z,14.46
2022-07-29T02:02:55.136Z,14.46
2022-07-29T02:03:54.633Z,14.48
2022-07-29T02:04:55.290Z,14.49
2022-07-29T02:05:54.858Z,14.51
2022-07-29T02:06:55.109Z,14.49
2022-07-29T02:07:54.836Z,14.46
2022-07-29T02:08:54.583Z,14.45
2022-07-29T02:09:55.113Z,14.45
2022-07-29T02:10:54.832Z,14.48
2022-07-29T02:11:55.063Z,14.46
2022-07-29T02:12:55.846Z,14.52
2022-07-29T02:13:55.055Z,14.59
2022-07-29T02:14:54.790Z,14.52
2022-07-29T02:15:55.337Z,14.48
2022-07-29T02:16:55.026Z,14.56
2022-07-29T02:17:54.766Z,14.56
2022-07-29T02:18:55.072Z,14.57
2022-07-29T02:19:55.089Z,14.51
2022-07-29T02:20:54.490Z,14.51
2022-07-29T02:21:54.751Z,14.53
2022-07-29T02:22:54.986Z,14.6
2022-07-29T02:23:56.483Z,14.56
2022-07-29T02:24:54.977Z,14.49
2022-07-29T02:25:55.319Z,14.51
2022-07-29T02:26:54.696Z,14.59
2022-07-29T02:27:54.965Z,14.66
2022-07-29T02:28:54.938Z,14.61
2022-07-29T02:29:54.431Z,14.51
2022-07-29T02:30:54.966Z,14.6
2022-07-29T02:31:54.642Z,14.59
2022-07-29T02:32:54.894Z,14.6
2022-07-29T02:33:54.634Z,14.59
2022-07-29T02:34:54.883Z,14.6
2022-07-29T02:35:54.622Z,14.64
2022-07-29T02:36:54.863Z,14.59
2022-07-29T02:37:54.857Z,14.63
2022-07-29T02:38:54.849Z,14.69
2022-07-29T02:39:54.329Z,14.63
2022-07-29T02:40:54.322Z,14.61
2022-07-29T02:41:54.828Z,14.64
2022-07-29T02:42:54.830Z,14.66
2022-07-29T02:43:54.554Z,14.69
2022-07-29T02:44:54.803Z,14.63
2022-07-29T02:45:56.860Z,14.69
2022-07-29T02:46:54.999Z,14.66
2022-07-29T02:47:54.776Z,14.64
2022-07-29T02:48:55.229Z,14.77
2022-07-29T02:49:54.503Z,14.71
2022-07-29T02:50:54.500Z,14.7
2022-07-29T02:51:54.740Z,14.71
2022-07-29T02:52:57.256Z,14.7
2022-07-29T02:53:54.475Z,14.7
2022-07-29T02:54:54.466Z,14.74
2022-07-29T02:55:54.711Z,14.67
2022-07-29T02:56:54.700Z,14.69
2022-07-29T02:58:00.194Z,14.77
2022-07-29T02:58:54.682Z,14.8
2022-07-29T02:59:54.680Z,14.71
2022-07-29T03:00:54.698Z,14.67
2022-07-29T03:01:54.892Z,14.7
2022-07-29T03:02:54.684Z,14.7
2022-07-29T03:03:54.650Z,14.74
2022-07-29T03:04:54.889Z,14.82
2022-07-29T03:05:54.643Z,14.86
2022-07-29T03:06:54.375Z,14.86
2022-07-29T03:07:54.613Z,14.83
2022-07-29T03:08:54.354Z,14.8
2022-07-29T03:09:54.346Z,14.82
2022-07-29T03:10:54.622Z,14.85
2022-07-29T03:11:55.673Z,14.89
2022-07-29T03:12:54.335Z,14.83
2022-07-29T03:13:54.315Z,14.86
2022-07-29T03:14:54.301Z,14.95
2022-07-29T03:15:54.495Z,14.82
2022-07-29T03:16:54.569Z,14.83
2022-07-29T03:17:54.542Z,14.87
2022-07-29T03:18:54.543Z,14.83
2022-07-29T03:19:54.268Z,14.86
2022-07-29T03:20:53.996Z,14.85
2022-07-29T03:21:54.508Z,14.85
2022-07-29T03:22:54.251Z,14.89
2022-07-29T03:23:53.982Z,14.83
2022-07-29T03:24:54.476Z,14.86
2022-07-29T03:25:54.473Z,14.85
2022-07-29T03:26:54.463Z,14.82
2022-07-29T03:27:54.461Z,14.77
2022-07-29T03:28:54.579Z,14.85
2022-07-29T03:29:55.678Z,14.82
2022-07-29T03:30:54.388Z,14.79
2022-07-29T03:31:54.452Z,14.79
2022-07-29T03:50:03.617Z,14.41
2022-07-29T03:51:03.860Z,14.36
2022-07-29T03:52:03.826Z,14.33
2022-07-29T03:53:03.853Z,14.28
2022-07-29T03:54:10.034Z,14.27
2022-07-29T03:55:03.540Z,14.26
2022-07-29T03:56:03.860Z,14.21
2022-07-29T03:57:03.259Z,14.24
2022-07-29T03:58:03.763Z,14.19
2022-07-29T03:59:03.504Z,14.2
2022-07-29T04:00:03.740Z,14.27
2022-07-29T04:01:03.736Z,14.28
2022-07-29T04:02:04.288Z,14.26
2022-07-29T04:03:03.734Z,14.27
2022-07-29T04:04:03.834Z,14.28
2022-07-29T04:05:03.747Z,14.28
2022-07-29T04:06:03.693Z,14.21
2022-07-29T04:07:03.418Z,14.28
2022-07-29T04:08:03.455Z,14.28
2022-07-29T04:09:03.661Z,14.24
2022-07-29T04:10:03.902Z,14.38
2022-07-29T04:11:03.132Z,14.36
2022-07-29T04:12:08.646Z,14.28
2022-07-29T04:13:03.623Z,14.44
2022-07-29T04:14:03.362Z,14.46
2022-07-29T04:15:03.612Z,14.49
2022-07-29T04:16:03.525Z,14.46
2022-07-29T04:17:03.079Z,14.61
2022-07-29T04:18:03.331Z,14.57
2022-07-29T04:19:03.332Z,14.59
2022-07-29T04:20:03.576Z,14.61
2022-07-29T04:21:03.299Z,14.63
2022-07-29T04:22:03.034Z,14.71
2022-07-29T04:23:03.294Z,14.7
2022-07-29T04:24:03.279Z,14.82
2022-07-29T04:25:08.171Z,14.86
2022-07-29T04:26:03.517Z,14.93
2022-07-29T04:27:03.263Z,14.86
2022-07-29T04:28:03.603Z,14.95
2022-07-29T04:29:03.486Z,15
2022-07-29T04:30:02.969Z,15
2022-07-29T04:31:03.324Z,15.02
2022-07-29T04:32:03.207Z,15.05
2022-07-29T04:33:03.466Z,15.16
2022-07-29T04:34:03.448Z,15.27
2022-07-29T04:35:02.934Z,15.18
2022-07-29T04:36:03.891Z,15.25
2022-07-29T04:37:02.913Z,15.31
2022-07-29T04:38:02.904Z,15.31
2022-07-29T04:39:03.417Z,15.41
2022-07-29T04:40:03.146Z,15.44
2022-07-29T04:41:03.401Z,15.51
2022-07-29T04:42:04.724Z,15.56
2022-07-29T04:43:07.901Z,15.6
2022-07-29T04:44:04.395Z,15.68
2022-07-29T04:45:10.005Z,15.71
2022-07-29T04:46:03.532Z,15.88
2022-07-29T04:47:03.390Z,15.89
2022-07-29T04:48:03.115Z,15.99
2022-07-29T04:49:03.341Z,16
2022-07-29T04:50:03.087Z,16
2022-07-29T04:51:03.406Z,16.08
2022-07-29T04:52:03.118Z,16.08
2022-07-29T04:53:03.302Z,16.16
2022-07-29T04:54:03.045Z,16.16
2022-07-29T04:55:03.290Z,16.18
2022-07-29T04:56:03.027Z,16.11
2022-07-29T04:57:03.031Z,16.11
2022-07-29T04:58:04.414Z,16.11
2022-07-29T04:59:03.261Z,16.27
2022-07-29T05:00:03.253Z,16.26
2022-07-29T05:01:03.025Z,16.34
2022-07-29T05:02:03.244Z,16.27
2022-07-29T05:03:03.395Z,16.29
2022-07-29T05:04:05.952Z,16.33
2022-07-29T05:05:03.222Z,16.29
2022-07-29T05:06:03.219Z,16.32
2022-07-29T05:07:02.952Z,16.45
2022-07-29T05:08:02.947Z,16.33
2022-07-29T05:09:02.935Z,16.44
2022-07-29T05:10:03.183Z,16.55
2022-07-29T05:11:24.004Z,16.49
2022-07-29T05:12:03.167Z,16.45
2022-07-29T05:13:02.658Z,16.51
2022-07-29T05:14:04.043Z,16.59
2022-07-29T05:15:02.904Z,16.65
2022-07-29T05:16:03.220Z,16.7
2022-07-29T05:17:03.138Z,16.7
2022-07-29T05:18:03.215Z,16.69
2022-07-29T05:19:02.619Z,16.69
2022-07-29T05:20:02.615Z,16.69
2022-07-29T05:21:02.854Z,16.69
2022-07-29T05:22:02.642Z,16.72
2022-07-29T05:23:02.845Z,16.7
2022-07-29T05:24:02.833Z,16.72
2022-07-29T05:25:09.079Z,16.69
2022-07-29T05:26:02.825Z,16.76
2022-07-29T05:27:02.837Z,16.74
2022-07-29T05:28:03.064Z,16.77
2022-07-29T05:29:03.073Z,16.84
2022-07-29T05:30:03.068Z,16.81
2022-07-29T05:31:03.025Z,16.82
2022-07-29T05:32:03.117Z,16.85
2022-07-29T05:33:03.040Z,16.84
2022-07-29T05:34:03.043Z,16.81
2022-07-29T05:35:03.019Z,16.99
2022-07-29T05:36:05.520Z,16.94
2022-07-29T05:37:02.752Z,17.03
2022-07-29T05:38:03.005Z,17.05
2022-07-29T05:39:02.995Z,17.06
2022-07-29T05:40:04.574Z,17.06
2022-07-29T05:41:02.859Z,17.12
2022-07-29T05:42:02.979Z,17.17
2022-07-29T05:43:02.990Z,17.18
2022-07-29T05:44:02.974Z,17.17
2022-07-29T05:45:02.971Z,17.15
2022-07-29T05:46:03.432Z,17.2
2022-07-29T05:47:03.001Z,17.21
2022-07-29T05:48:02.690Z,17.24
2022-07-29T05:49:02.956Z,17.25
2022-07-29T05:50:02.937Z,17.25
2022-07-29T05:51:02.422Z,17.43
2022-07-29T05:52:02.665Z,17.36
2022-07-29T05:53:21.485Z,17.45
2022-07-29T05:54:02.657Z,17.49
2022-07-29T05:55:02.900Z,17.47
2022-07-29T05:56:02.639Z,17.6
2022-07-29T05:57:02.893Z,17.55
2022-07-29T05:58:02.376Z,17.63
2022-07-29T05:59:02.628Z,17.68
2022-07-29T06:00:02.901Z,17.73
2022-07-29T06:01:02.954Z,17.77
2022-07-29T06:02:03.170Z,17.76
2022-07-29T06:03:02.868Z,17.83
2022-07-29T06:04:02.553Z,17.8
2022-07-29T06:05:02.815Z,17.88
2022-07-29T06:06:02.842Z,17.9
2022-07-29T06:07:02.945Z,17.99
2022-07-29T06:08:02.578Z,17.96
2022-07-29T06:09:14.407Z,17.99
2022-07-29T06:10:02.326Z,18.13
2022-07-29T06:11:02.821Z,18.06
2022-07-29T06:12:02.547Z,18.16
2022-07-29T06:13:02.803Z,18.31
2022-07-29T06:14:02.296Z,18.32
2022-07-29T06:15:03.735Z,18.21
2022-07-29T06:16:03.993Z,18.34
2022-07-29T06:17:02.789Z,18.36
2022-07-29T06:18:05.037Z,18.38
2022-07-29T06:19:02.766Z,18.39
2022-07-29T06:20:02.516Z,18.36
2022-07-29T06:21:02.763Z,18.45
2022-07-29T06:22:02.762Z,18.5
2022-07-29T06:23:02.775Z,18.47
2022-07-29T06:24:03.022Z,18.51
2022-07-29T06:25:02.748Z,18.54
2022-07-29T06:26:02.739Z,18.63
2022-07-29T06:27:02.484Z,18.69
2022-07-29T06:28:02.731Z,18.61
2022-07-29T06:29:02.719Z,18.71
2022-07-29T06:30:02.935Z,18.93
2022-07-29T06:31:02.703Z,19
2022-07-29T06:32:02.703Z,19.05
2022-07-29T06:33:02.705Z,19.17
2022-07-29T06:34:03.674Z,19.23
2022-07-29T06:35:46.686Z,19.37
2022-07-29T06:36:05.279Z,19.43
2022-07-29T06:37:06.249Z,19.52
2022-07-29T06:38:30.550Z,19.55
2022-07-29T06:39:08.465Z,19.6
2022-07-29T06:40:04.603Z,19.55
2022-07-29T06:41:04.646Z,19.53
2022-07-29T06:42:04.592Z,19.52
2022-07-29T06:43:04.840Z,19.67
2022-07-29T06:44:04.578Z,19.68
2022-07-29T06:45:09.704Z,19.67
2022-07-29T06:46:04.902Z,19.68
2022-07-29T06:47:04.569Z,19.78
2022-07-29T06:48:04.565Z,19.64
2022-07-29T06:49:04.958Z,19.7
2022-07-29T06:50:04.581Z,19.64
2022-07-29T06:51:04.319Z,19.8
2022-07-29T06:52:04.800Z,19.78
2022-07-29T06:53:04.559Z,19.86
2022-07-29T06:54:07.779Z,19.89
2022-07-29T06:55:04.282Z,19.97
2022-07-29T06:56:04.543Z,20
2022-07-29T06:57:04.783Z,20.01
2022-07-29T06:58:04.528Z,20.05
2022-07-29T06:59:06.134Z,20.18
2022-07-29T07:00:04.772Z,20.26
2022-07-29T07:01:04.705Z,20.37
2022-07-29T07:02:05.015Z,20.66
2022-07-29T07:03:04.504Z,21.28
2022-07-29T07:04:04.499Z,21.85
2022-07-29T07:05:04.766Z,22.38
2022-07-29T07:06:04.775Z,22.91
2022-07-29T07:07:05.275Z,23.53
2022-07-29T07:08:04.490Z,23.85
2022-07-29T07:09:04.489Z,23.89
2022-07-29T07:10:04.480Z,23.77
2022-07-29T07:11:04.738Z,23.48
2022-07-29T07:12:04.729Z,23.48
2022-07-29T07:13:04.731Z,23.66
2022-07-29T07:14:08.685Z,24.45
2022-07-29T07:15:04.467Z,24.93
2022-07-29T07:16:04.735Z,25.12
2022-07-29T07:17:04.957Z,25.45
2022-07-29T07:18:05.268Z,25.75
2022-07-29T07:19:04.483Z,26.04
2022-07-29T07:20:04.458Z,26.34
2022-07-29T07:21:04.489Z,26.69
2022-07-29T07:22:06.895Z,27.06
2022-07-29T07:23:04.722Z,27.11
2022-07-29T07:24:04.708Z,27.11
2022-07-29T07:25:04.269Z,27.12
2022-07-29T07:26:04.737Z,27.21
2022-07-29T07:27:04.457Z,27.13
2022-07-29T07:28:04.452Z,27.04
2022-07-29T07:29:04.191Z,26.74
2022-07-29T07:30:04.460Z,26.34
2022-07-29T07:31:04.454Z,26.31
2022-07-29T07:32:05.922Z,26.71
2022-07-29T07:33:04.455Z,27.51
2022-07-29T07:34:04.459Z,27.84
2022-07-29T07:35:04.457Z,28.23
2022-07-29T07:36:04.198Z,28.68
2022-07-29T07:37:04.456Z,29.38
2022-07-29T07:38:04.607Z,29.82
2022-07-29T07:39:04.723Z,29.66
2022-07-29T07:40:04.738Z,29.14
2022-07-29T07:41:04.452Z,28.7
2022-07-29T07:42:04.471Z,28.33
2022-07-29T07:43:04.205Z,28.28
2022-07-29T07:44:04.462Z,28.35
2022-07-29T07:45:18.354Z,28.53
2022-07-29T07:46:04.746Z,28.58
2022-07-29T07:47:15.025Z,28.33
2022-07-29T07:48:04.817Z,28.06
2022-07-29T07:49:04.969Z,27.79
2022-07-29T07:50:04.733Z,27.34
2022-07-29T07:51:04.478Z,27.05
2022-07-29T07:52:04.739Z,26.67
2022-07-29T07:53:04.479Z,26.38
2022-07-29T07:54:06.042Z,26.16
2022-07-29T07:55:04.540Z,25.89
2022-07-29T07:56:15.642Z,25.86
2022-07-29T07:57:04.770Z,25.74
2022-07-29T07:58:04.494Z,25.74
2022-07-29T07:59:04.750Z,25.66
2022-07-29T08:00:04.233Z,25.69
2022-07-29T08:01:04.977Z,25.67
2022-07-29T08:02:04.647Z,25.76
2022-07-29T08:03:04.940Z,25.76
2022-07-29T08:04:04.505Z,25.79
2022-07-29T08:05:04.509Z,25.79
2022-07-29T08:06:04.239Z,25.7
2022-07-29T08:07:04.489Z,25.56
2022-07-29T08:08:04.580Z,25.34
2022-07-29T08:09:32.984Z,25.11
2022-07-29T08:10:04.235Z,25.09
2022-07-29T08:11:11.881Z,24.87
2022-07-29T08:12:04.542Z,24.75
2022-07-29T08:13:05.133Z,24.61
2022-07-29T08:14:04.490Z,24.44
2022-07-29T08:15:04.489Z,24.27
2022-07-29T08:16:04.925Z,24.15
2022-07-29T08:17:04.742Z,24.07
2022-07-29T08:18:10.636Z,23.96
2022-07-29T08:19:04.753Z,23.92
2022-07-29T08:20:05.162Z,23.93
2022-07-29T08:21:04.531Z,23.85
2022-07-29T08:22:05.420Z,23.99
2022-07-29T08:23:05.164Z,24.15
2022-07-29T08:24:11.833Z,24.4
2022-07-29T08:25:04.905Z,24.74
2022-07-29T08:26:05.508Z,25.02
2022-07-29T08:27:12.899Z,25.24
2022-07-29T08:28:05.160Z,25.39
2022-07-29T08:29:05.423Z,25.62
2022-07-29T08:30:05.426Z,25.91
2022-07-29T08:31:05.420Z,25.93
2022-07-29T08:32:05.418Z,26.07
2022-07-29T08:33:05.853Z,26.17
2022-07-29T08:34:05.168Z,26.12
2022-07-29T08:35:05.417Z,26.16
2022-07-29T08:36:05.162Z,26.27
2022-07-29T08:37:05.169Z,26.35
2022-07-29T08:38:07.295Z,26.42
2022-07-29T08:39:05.169Z,26.6
2022-07-29T08:40:05.438Z,26.79
2022-07-29T08:41:05.176Z,26.69
2022-07-29T08:42:05.955Z,26.82
2022-07-29T08:43:04.985Z,26.9
2022-07-29T08:44:05.435Z,27.09
2022-07-29T08:45:05.182Z,27.09
2022-07-29T08:46:05.065Z,27.23
2022-07-29T08:47:05.452Z,27.28
2022-07-29T08:48:05.450Z,27.42
2022-07-29T08:49:05.471Z,27.34
2022-07-29T08:50:05.444Z,27.28
2022-07-29T08:51:06.767Z,27.43
2022-07-29T08:52:05.189Z,27.59
2022-07-29T08:53:05.189Z,27.65
2022-07-29T08:54:05.189Z,27.75
2022-07-29T08:55:05.197Z,27.81
2022-07-29T08:56:05.447Z,27.75
2022-07-29T08:57:05.238Z,27.81
2022-07-29T08:58:05.195Z,27.71
2022-07-29T08:59:10.050Z,27.83
2022-07-29T09:00:14.023Z,27.89
2022-07-29T09:01:10.798Z,28.03
2022-07-29T09:02:05.922Z,28.11
2022-07-29T09:03:05.225Z,28.14
2022-07-29T09:04:05.504Z,28.17
2022-07-29T09:05:05.209Z,28.14
2022-07-29T09:06:05.472Z,28.17
2022-07-29T09:07:05.208Z,28.33
2022-07-29T09:08:05.470Z,28.39
2022-07-29T09:09:05.221Z,28.43
2022-07-29T09:10:05.233Z,28.42
2022-07-29T09:11:08.514Z,28.48
2022-07-29T09:12:05.221Z,28.6
2022-07-29T09:13:05.224Z,28.72
2022-07-29T09:14:05.230Z,28.76
2022-07-29T09:15:04.968Z,28.75
2022-07-29T09:16:11.821Z,28.8
2022-07-29T09:17:07.167Z,28.95
2022-07-29T09:18:05.493Z,29.08
2022-07-29T09:19:05.247Z,29.17
2022-07-29T09:20:05.244Z,29.28
2022-07-29T09:21:05.240Z,29.26
2022-07-29T09:22:08.161Z,29.24
2022-07-29T09:23:04.991Z,29.36
2022-07-29T09:24:05.252Z,29.24
2022-07-29T09:25:05.008Z,29.14
2022-07-29T09:26:05.000Z,29.3
2022-07-29T09:27:05.514Z,29.28
2022-07-29T09:28:05.520Z,29.32
2022-07-29T09:29:05.010Z,29.32
2022-07-29T09:30:06.169Z,29.39
2022-07-29T09:31:05.397Z,29.43
2022-07-29T09:32:05.576Z,29.38
2022-07-29T09:33:05.540Z,29.33
2022-07-29T09:34:05.600Z,29.42
2022-07-29T09:35:05.536Z,29.6
2022-07-29T09:36:08.177Z,29.65
2022-07-29T09:37:05.033Z,29.52
2022-07-29T09:38:05.573Z,29.65
2022-07-29T09:39:05.297Z,29.76
2022-07-29T09:40:08.968Z,29.61
2022-07-29T09:41:11.105Z,29.75
2022-07-29T09:42:05.307Z,29.75
2022-07-29T09:43:05.563Z,29.75
2022-07-29T09:44:05.315Z,29.75
2022-07-29T09:45:05.072Z,29.75
2022-07-29T09:46:08.076Z,29.7
2022-07-29T09:47:05.511Z,29.61
2022-07-29T09:48:05.590Z,29.7
2022-07-29T09:49:05.535Z,29.72
2022-07-29T09:50:05.422Z,29.75
2022-07-29T09:51:05.601Z,29.81
2022-07-29T09:52:05.344Z,29.89
2022-07-29T09:53:05.351Z,29.98
2022-07-29T09:54:05.369Z,30.03
2022-07-29T09:55:05.364Z,30.04
2022-07-29T09:56:05.373Z,30.16
2022-07-29T09:57:05.360Z,30.19
2022-07-29T09:58:05.362Z,30.13
2022-07-29T09:59:05.368Z,30.06
2022-07-29T10:00:05.371Z,29.97
2022-07-29T10:01:05.804Z,30.04
2022-07-29T10:02:05.379Z,30.04
2022-07-29T10:03:05.339Z,30.19
2022-07-29T10:04:05.390Z,30.24
2022-07-29T10:05:05.393Z,30.22
2022-07-29T10:06:05.649Z,30.22
2022-07-29T10:07:09.558Z,30.1
2022-07-29T10:08:05.405Z,30.16
2022-07-29T10:09:05.662Z,30.13
2022-07-29T10:10:05.407Z,30.37
2022-07-29T10:11:05.414Z,30.26
2022-07-29T10:12:05.736Z,30.26
2022-07-29T10:13:17.585Z,30.31
2022-07-29T10:14:05.425Z,30.22
2022-07-29T10:15:05.684Z,30
2022-07-29T10:16:05.661Z,30.03
2022-07-29T10:17:05.438Z,29.98
2022-07-29T10:18:05.441Z,29.95
2022-07-29T10:19:05.194Z,29.88
2022-07-29T10:20:05.955Z,29.81
2022-07-29T10:21:05.712Z,29.72
2022-07-29T10:22:06.298Z,29.43
2022-07-29T10:23:05.723Z,29.35
2022-07-29T10:24:06.361Z,29.36
2022-07-29T10:25:05.473Z,29.33
2022-07-29T10:26:05.732Z,29.32
2022-07-29T10:27:05.223Z,29.24
2022-07-29T10:28:05.481Z,29.15
2022-07-29T10:29:05.745Z,28.98
2022-07-29T10:30:05.737Z,28.9
2022-07-29T10:31:05.663Z,28.82
2022-07-29T10:32:05.490Z,28.78
2022-07-29T10:33:05.770Z,28.88
2022-07-29T10:34:05.843Z,29.03
2022-07-29T10:35:05.511Z,29.06
2022-07-29T10:36:05.510Z,29.15
2022-07-29T10:37:05.918Z,29.33
2022-07-29T10:38:05.984Z,29.54
2022-07-29T10:39:09.715Z,29.67
2022-07-29T10:40:05.552Z,29.81
2022-07-29T10:41:08.921Z,29.89
2022-07-29T10:42:11.507Z,29.89
2022-07-29T10:43:05.643Z,29.91
2022-07-29T10:44:05.538Z,29.87
2022-07-29T10:45:06.663Z,29.89
2022-07-29T10:46:09.498Z,29.81
2022-07-29T10:47:06.882Z,29.67
2022-07-29T10:48:05.805Z,29.63
2022-07-29T10:49:05.999Z,29.54
2022-07-29T10:50:05.822Z,29.36
2022-07-29T10:51:06.838Z,29.35
2022-07-29T10:52:08.239Z,29.32
2022-07-29T10:53:11.132Z,29.36
2022-07-29T10:54:05.930Z,29.45
2022-07-29T10:55:07.786Z,29.47
2022-07-29T10:56:15.931Z,29.55
2022-07-29T10:57:07.957Z,29.63
2022-07-29T10:58:09.066Z,29.89
2022-07-29T10:59:05.778Z,30.16
2022-07-29T11:00:06.965Z,30.28
2022-07-29T11:01:10.132Z,30.25
2022-07-29T11:02:44.959Z,30.56
2022-07-29T11:03:13.200Z,30.52
2022-07-29T11:04:06.515Z,30.49
2022-07-29T11:05:05.613Z,30.44
2022-07-29T11:06:11.160Z,30.44
2022-07-29T11:07:09.078Z,30.42
2022-07-29T11:08:09.041Z,30.32
2022-07-29T11:09:11.544Z,30.29
2022-07-29T11:10:06.826Z,30.29
2022-07-29T11:11:06.434Z,30.18
2022-07-29T11:12:07.774Z,30.09
2022-07-29T11:13:05.905Z,30
2022-07-29T11:14:05.975Z,29.95
2022-07-29T11:15:05.659Z,29.91
2022-07-29T11:16:05.917Z,29.89
2022-07-29T11:17:08.437Z,29.69
2022-07-29T11:18:06.368Z,29.66
2022-07-29T11:19:09.807Z,29.65
2022-07-29T11:20:05.679Z,29.66
2022-07-29T11:21:05.960Z,29.61
2022-07-29T11:22:07.843Z,29.63
2022-07-29T11:23:07.799Z,29.58
2022-07-29T11:24:07.924Z,29.76
2022-07-29T11:25:09.984Z,29.7
2022-07-29T11:26:09.092Z,29.69
2022-07-29T11:27:07.753Z,29.82
2022-07-29T11:28:06.647Z,29.95
2022-07-29T11:29:06.958Z,30.13
2022-07-29T11:30:08.047Z,30.22
2022-07-29T11:31:08.066Z,30.35
2022-07-29T11:32:06.684Z,30.48
2022-07-29T11:33:07.666Z,30.39
2022-07-29T11:34:10.205Z,30.45
2022-07-29T11:35:40.365Z,30.6
2022-07-29T11:36:18.715Z,30.54
2022-07-29T11:37:09.349Z,30.52
2022-07-29T11:38:09.900Z,30.42
2022-07-29T11:39:17.585Z,30.16
2022-07-29T11:40:10.926Z,30.04
2022-07-29T11:41:10.983Z,29.76
2022-07-29T11:42:18.695Z,29.54
2022-07-29T11:43:16.821Z,29.32
2022-07-29T11:44:13.846Z,29.17
2022-07-29T11:45:49.439Z,29.26
2022-07-29T11:46:12.782Z,29.38
2022-07-29T11:47:11.588Z,29.35
2022-07-29T11:48:38.197Z,29.51
2022-07-29T11:49:17.784Z,29.65
2022-07-29T11:50:15.184Z,29.67
2022-07-29T11:51:13.258Z,30.03
2022-07-29T11:52:13.388Z,30.07
2022-07-29T11:53:14.474Z,30.13
2022-07-29T11:54:18.016Z,30.16
2022-07-29T11:55:14.813Z,30.07
2022-07-29T11:56:09.845Z,30.04
2022-07-29T11:57:09.330Z,29.89
2022-07-29T11:58:09.332Z,29.89
2022-07-29T11:59:17.644Z,29.77
2022-07-29T12:00:15.065Z,29.76
2022-07-29T12:01:10.723Z,29.75
2022-07-29T12:07:10.129Z,29.61
2022-07-29T12:07:35.977Z,29.66
2022-07-29T12:08:25.642Z,29.6
2022-07-29T12:09:25.399Z,29.63
2022-07-29T12:10:35.638Z,29.67
2022-07-29T12:11:26.741Z,29.77
2022-07-29T12:12:29.250Z,29.88
2022-07-29T12:13:40.337Z,30.02
2022-07-29T12:14:25.620Z,30.06
2022-07-29T12:15:45.796Z,30.06
2022-07-29T12:16:32.269Z,30.04
2022-07-29T12:17:25.396Z,30.06
2022-07-29T12:18:28.935Z,30.14
2022-07-29T12:19:25.730Z,30.19
2022-07-29T12:20:27.418Z,30.19
2022-07-29T12:21:31.186Z,30.19
2022-07-29T12:22:29.992Z,30.07
2022-07-29T12:23:25.476Z,30.07
2022-07-29T12:24:29.309Z,30
2022-07-29T12:25:40.765Z,30.03
2022-07-29T12:26:28.284Z,29.91
2022-07-29T12:27:40.291Z,29.75
2022-07-29T12:28:33.012Z,29.76
2022-07-29T12:29:39.089Z,29.87
2022-07-29T12:30:26.798Z,29.84
2022-07-29T12:31:48.352Z,29.88
2022-07-29T12:32:25.890Z,29.89
2022-07-29T12:33:25.455Z,29.79
2022-07-29T12:34:25.702Z,29.91
2022-07-29T12:35:25.445Z,29.89
2022-07-29T12:36:25.711Z,30.07
2022-07-29T12:37:45.240Z,30.16
2022-07-29T12:38:25.464Z,30.11
2022-07-29T12:39:25.725Z,30.13
2022-07-29T12:40:25.469Z,30.03
2022-07-29T12:41:25.833Z,30.06
2022-07-29T12:42:28.269Z,29.92
2022-07-29T12:43:25.480Z,29.76
2022-07-29T12:44:25.234Z,29.57
2022-07-29T12:45:25.744Z,29.48
2022-07-29T12:46:26.057Z,29.3
2022-07-29T12:47:25.498Z,29.28
2022-07-29T12:48:25.803Z,29.3
2022-07-29T12:49:25.476Z,29.2
2022-07-29T12:50:30.933Z,29.17
2022-07-29T12:51:25.772Z,29.29
2022-07-29T12:52:25.262Z,29.3
2022-07-29T12:53:25.783Z,29.36
2022-07-29T12:54:27.773Z,29.38
2022-07-29T12:55:25.778Z,29.36
2022-07-29T12:56:47.506Z,29.24
2022-07-29T12:57:25.278Z,29.29
2022-07-29T12:58:25.808Z,29.28
2022-07-29T12:59:25.806Z,29.21
2022-07-29T13:00:25.400Z,29.14
2022-07-29T13:01:26.219Z,29.02
2022-07-29T13:02:25.774Z,28.85
2022-07-29T13:03:27.549Z,28.76
2022-07-29T13:04:25.558Z,28.57
2022-07-29T13:05:25.835Z,28.49
2022-07-29T13:06:25.825Z,28.38
2022-07-29T13:08:00.001Z,28.35
2022-07-29T13:08:27.643Z,28.45
2022-07-29T13:09:26.401Z,28.39
2022-07-29T13:10:28.692Z,28.3
2022-07-29T13:11:26.665Z,28.33
2022-07-29T13:12:26.662Z,28.26
2022-07-29T13:13:26.755Z,28.23
2022-07-29T13:14:26.414Z,28.2
2022-07-29T13:15:26.670Z,28.18
2022-07-29T13:16:30.103Z,28.12
2022-07-29T13:17:26.563Z,28.01
2022-07-29T13:18:29.187Z,27.91